createdAt,value
2022-08-06T00:20:53.865Z,53.25
2022-08-06T00:49:49.537Z,54.85
2022-08-06T01:17:42.562Z,54.45
2022-08-06T01:45:56.453Z,53.39
2022-08-06T02:14:30.446Z,52.36
2022-08-06T02:42:51.247Z,51.67
2022-08-06T03:11:07.349Z,53.45
2022-08-06T03:39:54.316Z,53.96
2022-08-06T04:08:07.456Z,54.42
2022-08-06T04:36:54.663Z,54.76
2022-08-06T05:05:23.150Z,56.29
2022-08-06T05:33:59.091Z,52.17
2022-08-06T06:03:28.353Z,47.62
2022-08-06T06:32:04.927Z,45.64
2022-08-06T07:00:43.700Z,44.93
2022-08-06T07:28:51.193Z,43.55
2022-08-06T07:57:59.593Z,43.76
2022-08-06T08:26:13.646Z,42.95
2022-08-06T08:57:01.895Z,41.48
2022-08-06T09:23:58.833Z,39.1
2022-08-06T09:52:14.112Z,37.27
2022-08-06T10:20:56.792Z,36.67
2022-08-06T10:50:33.180Z,35.19
2022-08-06T11:18:47.826Z,34.89
2022-08-06T11:47:15.474Z,34.17
2022-08-06T12:15:59.847Z,33.79
2022-08-06T12:44:09.359Z,33.34
2022-08-06T13:14:03.101Z,33.16
2022-08-06T13:41:09.644Z,32.39
2022-08-06T14:09:26.386Z,32.21
2022-08-06T14:37:57.215Z,31.34
2022-08-06T15:06:07.198Z,31.24
2022-08-06T15:34:28.194Z,30.7
2022-08-06T16:02:50.965Z,30.46
2022-08-06T16:31:14.834Z,30.53
2022-08-06T16:59:16.386Z,30.26
2022-08-06T17:56:01.781Z,30.36
2022-08-06T18:24:13.784Z,30.41
2022-08-06T18:52:25.702Z,31.21
2022-08-06T19:20:31.897Z,33.05
2022-08-06T19:48:52.106Z,34.51
2022-08-06T20:17:04.923Z,35.79
2022-08-06T20:45:32.361Z,36.59
2022-08-06T21:14:00.153Z,37.95
2022-08-06T21:42:12.259Z,39.52
2022-08-06T22:10:32.995Z,41
2022-08-06T22:38:57.457Z,35
2022-08-06T23:07:33.965Z,35.04
2022-08-06T23:35:42.291Z,36.1
